createdAt,value
2023-07-12T00:01:07.538Z,9.90
2023-07-12T00:03:35.494Z,9.57
2023-07-12T00:06:03.381Z,10.25
2023-07-12T00:08:33.308Z,9.82
2023-07-12T00:11:01.251Z,10.25
2023-07-12T00:13:28.807Z,11.32
2023-07-12T00:15:57.668Z,10.90
2023-07-12T00:18:26.859Z,11.52
2023-07-12T00:20:54.986Z,11.50
2023-07-12T00:23:22.794Z,11.93
2023-07-12T00:25:51.234Z,11.48
2023-07-12T00:28:25.338Z,11.70
2023-07-12T00:30:54.181Z,10.80
2023-07-12T00:33:22.050Z,11.27
2023-07-12T00:35:50.296Z,11.27
2023-07-12T00:38:26.635Z,11.00
2023-07-12T00:41:00.496Z,11.18
2023-07-12T00:43:31.901Z,10.23
2023-07-12T00:46:01.608Z,10.50
2023-07-12T00:48:29.190Z,10.18
2023-07-12T00:50:56.792Z,10.90
2023-07-12T00:53:25.130Z,10.40
2023-07-12T00:56:07.799Z,10.55
2023-07-12T00:58:55.448Z,10.18
2023-07-12T01:01:27.402Z,11.25
2023-07-12T01:03:55.873Z,9.68
2023-07-12T01:06:24.660Z,10.73
2023-07-12T01:08:55.412Z,10.63
2023-07-12T01:11:26.738Z,10.75
2023-07-12T01:13:54.644Z,10.20
2023-07-12T01:16:24.576Z,10.15
2023-07-12T01:18:52.459Z,10.40
2023-07-12T01:21:22.152Z,10.43
2023-07-12T01:23:50.628Z,10.23
2023-07-12T01:26:24.202Z,10.07
2023-07-12T01:28:53.581Z,10.73
2023-07-12T01:31:21.220Z,10.93
2023-07-12T01:33:49.138Z,10.13
2023-07-12T01:36:17.103Z,10.98
2023-07-12T01:38:45.161Z,10.43
2023-07-12T01:41:12.760Z,11.05
2023-07-12T01:43:40.661Z,11.00
2023-07-12T01:46:08.404Z,10.98
2023-07-12T01:48:38.130Z,10.63
2023-07-12T01:51:07.523Z,10.70
2023-07-12T01:53:36.543Z,10.77
2023-07-12T01:56:05.182Z,11.43
2023-07-12T01:58:33.299Z,11.52
2023-07-12T02:01:01.416Z,10.77
2023-07-12T02:03:29.629Z,11.25
2023-07-12T02:05:58.747Z,11.05
2023-07-12T02:08:26.970Z,11.30
2023-07-12T02:10:54.887Z,11.80
2023-07-12T02:13:23.737Z,11.55
2023-07-12T02:15:51.641Z,12.27
2023-07-12T02:18:20.091Z,12.10
2023-07-12T02:20:47.811Z,11.98
2023-07-12T02:23:15.586Z,11.52
2023-07-12T02:25:43.273Z,11.20
2023-07-12T02:28:11.079Z,10.35
2023-07-12T02:30:39.489Z,11.23
2023-07-12T02:33:07.495Z,10.68
2023-07-12T02:35:35.076Z,10.38
2023-07-12T02:38:03.259Z,9.93
2023-07-12T02:40:31.076Z,10.35
2023-07-12T02:42:58.969Z,10.15
2023-07-12T02:45:26.501Z,10.75
2023-07-12T02:47:54.360Z,10.48
2023-07-12T02:50:21.999Z,10.05
2023-07-12T02:52:50.055Z,10.32
2023-07-12T02:55:17.865Z,10.10
2023-07-12T02:57:45.490Z,10.20
2023-07-12T03:00:13.467Z,10.35
2023-07-12T03:02:41.138Z,11.10
2023-07-12T03:05:09.018Z,10.45
2023-07-12T03:07:37.014Z,10.35
2023-07-12T03:10:05.040Z,9.85
2023-07-12T03:12:32.744Z,10.25
2023-07-12T03:15:00.328Z,10.88
2023-07-12T03:17:28.124Z,10.18
2023-07-12T03:19:55.840Z,9.45
2023-07-12T03:22:23.456Z,9.95
2023-07-12T03:24:51.025Z,10.43
2023-07-12T03:27:18.603Z,9.88
2023-07-12T03:29:46.539Z,9.23
2023-07-12T03:32:14.096Z,10.38
2023-07-12T03:34:41.790Z,10.10
2023-07-12T03:37:09.372Z,9.82
2023-07-12T03:39:37.413Z,10.45
2023-07-12T03:42:05.118Z,10.40
2023-07-12T03:44:32.852Z,10.23
2023-07-12T03:47:00.382Z,11.18
2023-07-12T03:49:28.234Z,11.23
2023-07-12T03:51:55.798Z,10.88
2023-07-12T03:54:23.436Z,11.23
2023-07-12T03:56:52.552Z,11.20
2023-07-12T03:59:21.375Z,10.55
2023-07-12T04:01:49.219Z,11.35
2023-07-12T04:04:16.731Z,11.82
2023-07-12T04:06:44.419Z,12.88
2023-07-12T04:09:12.259Z,12.05
2023-07-12T04:11:42.591Z,12.07
2023-07-12T04:14:10.545Z,11.48
2023-07-12T04:16:38.076Z,11.90
2023-07-12T04:19:05.853Z,12.43
2023-07-12T04:21:33.495Z,11.27
2023-07-12T04:24:01.211Z,11.40
2023-07-12T04:26:29.540Z,12.38
2023-07-12T04:28:57.057Z,12.00
2023-07-12T04:31:25.282Z,11.70
2023-07-12T04:33:52.974Z,10.82
2023-07-12T04:36:20.824Z,10.57
2023-07-12T04:38:48.626Z,11.07
2023-07-12T04:41:17.469Z,11.25
2023-07-12T04:43:45.149Z,11.18
2023-07-12T04:46:12.745Z,11.52
2023-07-12T04:48:40.491Z,10.93
2023-07-12T04:51:08.728Z,11.30
2023-07-12T04:53:36.387Z,11.43
2023-07-12T04:56:04.124Z,11.23
2023-07-12T04:58:31.860Z,11.40
2023-07-12T05:01:00.034Z,10.38
2023-07-12T05:03:27.836Z,11.45
2023-07-12T05:08:28.075Z,11.77
2023-07-12T05:11:04.539Z,11.68
2023-07-12T05:13:34.597Z,11.57
2023-07-12T05:16:03.284Z,11.40
2023-07-12T05:18:31.106Z,12.38
2023-07-12T05:20:59.445Z,12.15
2023-07-12T05:23:27.149Z,12.68
2023-07-12T05:25:56.424Z,11.85
2023-07-12T05:28:24.116Z,11.93
2023-07-12T05:30:51.774Z,11.07
2023-07-12T05:33:19.477Z,10.30
2023-07-12T05:35:50.230Z,9.25
2023-07-12T05:38:18.800Z,9.85
2023-07-12T05:40:46.219Z,9.80
2023-07-12T05:43:16.350Z,9.32
2023-07-12T05:45:44.404Z,9.38
2023-07-12T05:48:12.106Z,9.32
2023-07-12T05:50:39.727Z,10.40
2023-07-12T05:53:07.267Z,9.43
2023-07-12T05:55:35.094Z,8.95
2023-07-12T05:58:04.156Z,8.95
2023-07-12T06:00:33.170Z,9.50
2023-07-12T06:03:00.905Z,9.77
2023-07-12T06:05:28.731Z,8.90
2023-07-12T06:07:56.361Z,9.52
2023-07-12T06:10:24.017Z,10.20
2023-07-12T06:12:51.756Z,10.32
2023-07-12T06:15:19.215Z,11.02
2023-07-12T06:17:47.378Z,10.88
2023-07-12T06:20:14.830Z,10.82
2023-07-12T06:22:42.613Z,10.27
2023-07-12T06:25:11.432Z,10.43
2023-07-12T06:27:39.224Z,10.48
2023-07-12T06:30:07.135Z,10.73
2023-07-12T06:32:34.765Z,11.23
2023-07-12T06:35:02.845Z,10.23
2023-07-12T06:37:30.365Z,10.60
2023-07-12T06:39:58.010Z,10.73
2023-07-12T06:42:26.975Z,10.50
2023-07-12T06:44:54.569Z,10.07
2023-07-12T06:47:22.600Z,9.38
2023-07-12T06:49:50.178Z,9.30
2023-07-12T06:52:18.083Z,9.30
2023-07-12T06:54:45.673Z,9.82
2023-07-12T06:57:14.564Z,9.30
2023-07-12T06:59:42.264Z,9.25
2023-07-12T07:02:12.847Z,9.48
2023-07-12T07:04:40.564Z,8.80
2023-07-12T07:07:08.265Z,9.55
2023-07-12T07:09:37.516Z,10.05
2023-07-12T07:12:06.277Z,9.30
2023-07-12T07:14:34.009Z,9.57
2023-07-12T07:17:01.549Z,8.73
2023-07-12T07:19:29.150Z,9.75
2023-07-12T07:21:56.643Z,9.38
2023-07-12T07:24:24.349Z,9.32
2023-07-12T07:26:52.394Z,9.48
2023-07-12T07:29:20.045Z,8.25
2023-07-12T07:31:47.663Z,8.20
2023-07-12T07:34:15.976Z,7.82
2023-07-12T07:36:43.708Z,8.77
2023-07-12T07:39:11.421Z,7.55
2023-07-12T07:41:39.167Z,7.68
2023-07-12T07:44:06.670Z,7.80
2023-07-12T07:46:34.283Z,7.68
2023-07-12T07:49:02.046Z,7.60
2023-07-12T07:51:30.273Z,7.85
2023-07-12T07:53:58.263Z,8.30
2023-07-12T07:56:25.744Z,7.72
2023-07-12T07:58:53.565Z,7.75
2023-07-12T08:01:21.022Z,7.93
2023-07-12T08:03:48.683Z,8.07
2023-07-12T08:06:16.388Z,8.18
2023-07-12T08:08:43.920Z,8.65
2023-07-12T08:11:12.384Z,8.43
2023-07-12T08:13:40.252Z,9.02
2023-07-12T08:16:07.727Z,8.68
2023-07-12T08:18:36.767Z,9.13
2023-07-12T08:21:04.856Z,9.40
2023-07-12T08:23:33.058Z,9.38
2023-07-12T08:26:00.631Z,9.85
2023-07-12T08:28:28.589Z,9.38
2023-07-12T08:30:56.258Z,8.82
2023-07-12T08:33:23.953Z,9.15
2023-07-12T08:35:52.009Z,8.95
2023-07-12T08:38:20.661Z,8.88
2023-07-12T08:40:50.605Z,8.90
2023-07-12T08:43:22.894Z,9.57
2023-07-12T08:45:54.301Z,8.45
2023-07-12T08:48:23.799Z,9.15
2023-07-12T08:50:51.679Z,9.27
2023-07-12T08:53:26.130Z,8.25
2023-07-12T08:55:56.122Z,8.85
2023-07-12T08:58:39.953Z,9.25
2023-07-12T09:01:14.147Z,8.65
2023-07-12T09:03:42.181Z,8.80
2023-07-12T09:06:14.274Z,8.95
2023-07-12T09:08:44.173Z,9.65
2023-07-12T09:11:16.173Z,9.25
2023-07-12T09:13:48.348Z,9.10
2023-07-12T09:16:24.515Z,9.55
2023-07-12T09:18:57.544Z,9.52
2023-07-12T09:21:28.380Z,9.32
2023-07-12T09:24:01.161Z,9.55
2023-07-12T09:26:30.667Z,9.45
2023-07-12T09:28:59.453Z,9.32
2023-07-12T09:31:30.840Z,9.02
2023-07-12T09:33:59.563Z,9.30
2023-07-12T09:36:27.225Z,9.00
2023-07-12T09:38:55.096Z,9.20
2023-07-12T09:41:25.616Z,11.05
2023-07-12T09:43:57.999Z,9.68
2023-07-12T09:46:35.069Z,9.25
2023-07-12T09:49:11.135Z,9.73
2023-07-12T09:51:45.257Z,10.77
2023-07-12T09:54:32.206Z,10.98
2023-07-12T09:57:02.835Z,10.95
2023-07-12T09:59:39.675Z,11.05
2023-07-12T10:02:15.934Z,11.15
2023-07-12T10:04:51.557Z,12.23
2023-07-12T10:07:25.329Z,12.23
2023-07-12T10:09:53.541Z,11.93
2023-07-12T10:12:26.196Z,12.07
2023-07-12T10:14:55.310Z,12.02
2023-07-12T10:17:33.617Z,11.60
2023-07-12T10:20:03.119Z,12.43
2023-07-12T10:22:40.290Z,12.07
2023-07-12T10:25:28.348Z,12.27
2023-07-12T10:28:08.951Z,11.65
2023-07-12T10:30:36.988Z,11.90
2023-07-12T10:33:24.800Z,11.45
2023-07-12T10:35:55.154Z,10.88
2023-07-12T10:38:23.387Z,11.25
2023-07-12T10:41:13.497Z,11.13
2023-07-12T10:43:45.395Z,11.10
2023-07-12T10:46:17.979Z,11.45
2023-07-12T10:48:52.755Z,10.93
2023-07-12T10:51:35.196Z,10.95
2023-07-12T10:54:04.571Z,10.93
2023-07-12T10:56:36.633Z,10.80
2023-07-12T10:59:05.952Z,10.90
2023-07-12T11:01:39.485Z,12.15
2023-07-12T11:04:17.417Z,11.23
2023-07-12T11:06:59.739Z,11.48
2023-07-12T11:09:28.719Z,11.32
2023-07-12T11:12:09.002Z,11.73
2023-07-12T11:14:39.723Z,11.57
2023-07-12T11:17:11.410Z,11.52
2023-07-12T11:19:42.678Z,11.68
2023-07-12T11:22:21.267Z,11.88
2023-07-12T11:25:01.211Z,11.00
2023-07-12T11:27:44.174Z,11.35
2023-07-12T11:30:29.833Z,10.80
2023-07-12T11:32:58.246Z,10.82
2023-07-12T11:35:45.400Z,10.63
2023-07-12T11:38:19.275Z,11.00
2023-07-12T11:40:50.062Z,11.57
2023-07-12T11:43:37.323Z,11.13
2023-07-12T11:46:12.759Z,10.93
2023-07-12T11:48:43.545Z,11.82
2023-07-12T11:51:17.912Z,10.77
2023-07-12T11:53:56.495Z,9.70
2023-07-12T11:56:24.704Z,8.73
2023-07-12T11:58:52.418Z,9.05
2023-07-12T12:01:22.915Z,9.20
2023-07-12T12:03:51.679Z,8.68
2023-07-12T12:06:20.042Z,8.48
2023-07-12T12:08:50.270Z,8.77
2023-07-12T12:11:18.206Z,9.07
2023-07-12T12:13:49.783Z,9.45
2023-07-12T12:16:22.483Z,8.85
2023-07-12T12:18:54.475Z,8.55
2023-07-12T12:21:24.502Z,8.70
2023-07-12T12:23:52.441Z,9.18
2023-07-12T12:26:26.348Z,8.90
2023-07-12T12:28:54.270Z,9.25
2023-07-12T12:31:22.688Z,8.50
2023-07-12T12:34:01.097Z,9.10
2023-07-12T12:36:30.266Z,9.38
2023-07-12T12:39:04.866Z,8.38
2023-07-12T12:41:40.741Z,8.75
2023-07-12T12:44:16.984Z,8.77
2023-07-12T12:54:27.645Z,8.73
2023-07-12T13:19:30.770Z,8.98
2023-07-12T13:21:58.808Z,9.05
2023-07-12T13:24:26.868Z,9.15
2023-07-12T13:26:54.365Z,9.48
2023-07-12T13:29:22.163Z,9.63
2023-07-12T13:31:50.219Z,9.38
2023-07-12T13:34:21.146Z,10.00
2023-07-12T13:36:50.363Z,8.95
2023-07-12T13:46:58.974Z,9.88
2023-07-12T13:49:26.748Z,10.07
2023-07-12T13:51:54.588Z,9.52
2023-07-12T13:54:22.366Z,9.93
2023-07-12T13:56:51.015Z,9.77
2023-07-12T13:59:19.788Z,9.77
2023-07-12T14:02:51.904Z,9.60
2023-07-12T14:04:39.015Z,10.48
2023-07-12T14:08:08.198Z,9.70
2023-07-12T14:10:17.762Z,9.35
2023-07-12T14:12:47.641Z,9.75
2023-07-12T14:15:21.469Z,9.50
2023-07-12T14:17:49.632Z,10.23
2023-07-12T14:20:17.426Z,10.02
2023-07-12T14:22:46.055Z,9.52
2023-07-12T14:25:21.099Z,10.15
2023-07-12T14:27:48.941Z,10.00
2023-07-12T14:32:49.678Z,9.57
2023-07-12T14:35:21.821Z,9.70
2023-07-12T14:37:50.870Z,9.70
2023-07-12T14:40:19.249Z,9.88
2023-07-12T14:42:47.488Z,10.30
2023-07-12T14:45:16.402Z,9.90
2023-07-12T14:47:44.108Z,10.15
2023-07-12T14:50:12.291Z,9.82
2023-07-12T14:52:40.543Z,9.98
2023-07-12T14:55:15.717Z,10.55
2023-07-12T15:00:17.209Z,9.18
2023-07-12T15:02:47.128Z,9.45
2023-07-12T15:05:14.844Z,9.10
2023-07-12T15:07:42.686Z,9.45
2023-07-12T15:10:14.549Z,9.10
2023-07-12T15:12:43.333Z,8.90
2023-07-12T15:15:27.902Z,8.90
2023-07-12T15:18:10.789Z,8.20
2023-07-12T15:20:38.712Z,8.38
2023-07-12T15:23:12.954Z,8.82
2023-07-12T15:25:40.674Z,8.00
2023-07-12T15:28:09.518Z,8.43
2023-07-12T15:30:37.389Z,8.43
2023-07-12T15:33:11.468Z,8.13
2023-07-12T15:35:39.033Z,8.02
2023-07-12T15:38:07.356Z,8.27
2023-07-12T15:40:48.626Z,8.52
2023-07-12T15:43:19.551Z,9.10
2023-07-12T15:45:47.521Z,8.50
2023-07-12T15:48:19.886Z,8.50
2023-07-12T15:50:48.364Z,8.45
2023-07-12T15:53:17.302Z,8.60
2023-07-12T15:55:45.099Z,9.05
2023-07-12T15:58:23.900Z,9.48
2023-07-12T16:00:54.795Z,9.38
2023-07-12T16:03:24.561Z,9.40
2023-07-12T16:05:53.986Z,8.98
2023-07-12T16:08:22.352Z,8.60
2023-07-12T16:10:51.046Z,8.82
2023-07-12T16:13:26.835Z,8.77
2023-07-12T16:15:55.006Z,9.00
2023-07-12T16:18:31.519Z,8.73
2023-07-12T16:21:01.804Z,7.85
2023-07-12T16:23:36.747Z,8.40
2023-07-12T16:26:05.889Z,8.40
2023-07-12T16:28:34.257Z,7.70
2023-07-12T16:31:03.388Z,7.90
2023-07-12T16:33:32.002Z,7.45
2023-07-12T16:35:59.850Z,7.18
2023-07-12T16:38:28.895Z,6.90
2023-07-12T16:41:06.438Z,7.75
2023-07-12T16:43:34.120Z,7.05
2023-07-12T16:46:01.946Z,6.95
2023-07-12T16:48:30.664Z,7.10
2023-07-12T16:50:58.511Z,7.10
2023-07-12T16:53:36.355Z,7.07
2023-07-12T16:56:07.409Z,6.90
2023-07-12T16:58:35.160Z,6.85
2023-07-12T17:01:03.916Z,7.32
2023-07-12T17:03:34.238Z,7.38
2023-07-12T17:06:02.614Z,7.50
2023-07-12T17:08:30.707Z,7.25
2023-07-12T17:11:00.284Z,7.15
2023-07-12T17:13:28.396Z,7.45
2023-07-12T17:15:56.093Z,7.75
2023-07-12T17:18:24.020Z,8.07
2023-07-12T17:20:53.440Z,7.43
2023-07-12T17:23:23.482Z,7.90
2023-07-12T17:25:54.396Z,7.30
2023-07-12T17:28:23.491Z,7.70
2023-07-12T17:30:53.289Z,7.57
2023-07-12T17:33:26.691Z,7.45
2023-07-12T17:35:56.348Z,7.70
2023-07-12T17:38:24.191Z,7.93
2023-07-12T17:40:53.498Z,7.70
2023-07-12T17:43:22.983Z,8.52
2023-07-12T17:45:50.797Z,8.07
2023-07-12T17:48:18.937Z,7.65
2023-07-12T17:50:48.392Z,8.00
2023-07-12T17:53:21.357Z,8.23
2023-07-12T17:56:00.494Z,7.72
2023-07-12T17:58:28.837Z,7.53
2023-07-12T18:00:57.718Z,8.25
2023-07-12T18:03:27.126Z,8.18
2023-07-12T18:05:55.335Z,8.25
2023-07-12T18:08:24.024Z,8.57
2023-07-12T18:10:53.201Z,8.60
2023-07-12T18:13:22.313Z,8.30
2023-07-12T18:15:50.305Z,8.00
2023-07-12T18:18:21.172Z,9.57
2023-07-12T18:20:49.772Z,9.30
2023-07-12T18:23:19.113Z,9.55
2023-07-12T18:25:47.702Z,9.40
2023-07-12T18:28:17.383Z,9.57
2023-07-12T18:30:47.446Z,9.73
2023-07-12T18:33:20.524Z,10.10
2023-07-12T18:35:51.635Z,9.25
2023-07-12T18:38:23.573Z,9.68
2023-07-12T18:40:51.390Z,9.90
2023-07-12T18:43:20.865Z,9.90
2023-07-12T18:45:48.701Z,9.48
2023-07-12T18:48:16.705Z,9.65
2023-07-12T18:50:45.418Z,10.02
2023-07-12T18:53:17.240Z,9.45
2023-07-12T18:55:45.172Z,9.85
2023-07-12T18:58:13.139Z,9.38
2023-07-12T19:00:41.730Z,9.60
2023-07-12T19:03:22.758Z,9.40
2023-07-12T19:05:50.717Z,8.93
2023-07-12T19:08:18.687Z,9.18
2023-07-12T19:10:46.322Z,8.80
2023-07-12T19:13:15.903Z,8.82
2023-07-12T19:15:43.671Z,9.65
2023-07-12T19:18:11.706Z,9.57
2023-07-12T19:20:39.425Z,9.88
2023-07-12T19:23:15.579Z,10.40
2023-07-12T19:25:43.328Z,10.07
2023-07-12T19:28:12.067Z,10.00
2023-07-12T19:30:39.806Z,10.30
2023-07-12T19:33:15.948Z,10.35
2023-07-12T19:35:44.371Z,10.52
2023-07-12T19:38:11.921Z,10.50
2023-07-12T19:40:39.660Z,10.35
2023-07-12T19:43:07.259Z,10.88
2023-07-12T19:45:35.173Z,11.02
2023-07-12T19:48:03.823Z,10.70
2023-07-12T19:50:32.730Z,11.30
2023-07-12T19:53:00.768Z,11.50
2023-07-12T19:55:29.399Z,11.32
2023-07-12T19:57:57.176Z,10.65
2023-07-12T20:00:28.148Z,10.88
2023-07-12T20:02:56.008Z,12.10
2023-07-12T20:05:24.322Z,11.70
2023-07-12T20:07:51.856Z,11.90
2023-07-12T20:10:19.432Z,11.48
2023-07-12T20:12:47.236Z,11.38
2023-07-12T20:15:14.935Z,10.60
2023-07-12T20:17:42.826Z,10.75
2023-07-12T20:20:14.385Z,11.60
2023-07-12T20:22:42.753Z,11.18
2023-07-12T20:25:14.006Z,10.80
2023-07-12T20:27:41.959Z,10.93
2023-07-12T20:30:11.073Z,11.18
2023-07-12T20:32:39.212Z,12.55
2023-07-12T20:35:07.339Z,11.13
2023-07-12T20:37:34.932Z,10.30
2023-07-12T20:40:04.062Z,10.65
2023-07-12T20:42:31.773Z,10.77
2023-07-12T20:44:59.570Z,10.63
2023-07-12T20:47:28.480Z,10.02
2023-07-12T20:49:56.476Z,11.27
2023-07-12T20:52:25.450Z,10.82
2023-07-12T20:54:53.418Z,9.35
2023-07-12T20:57:21.949Z,9.35
2023-07-12T20:59:50.839Z,10.02
2023-07-12T21:02:18.872Z,10.13
2023-07-12T21:04:46.921Z,9.98
2023-07-12T21:07:14.408Z,10.70
2023-07-12T21:09:42.015Z,10.40
2023-07-12T21:12:09.948Z,10.57
2023-07-12T21:14:37.964Z,10.73
2023-07-12T21:17:06.121Z,10.88
2023-07-12T21:19:33.637Z,10.95
2023-07-12T21:22:04.065Z,10.75
2023-07-12T21:24:32.025Z,10.35
2023-07-12T21:27:00.012Z,10.02
2023-07-12T21:29:27.643Z,10.90
2023-07-12T21:31:55.542Z,10.50
2023-07-12T21:34:23.671Z,10.68
2023-07-12T21:36:51.129Z,10.40
2023-07-12T21:39:18.711Z,10.18
2023-07-12T21:41:46.395Z,10.35
2023-07-12T21:44:14.460Z,10.63
2023-07-12T21:46:42.045Z,10.20
2023-07-12T21:49:09.773Z,10.63
2023-07-12T21:51:37.434Z,10.60
2023-07-12T21:54:05.633Z,11.10
2023-07-12T21:56:33.587Z,10.85
2023-07-12T21:59:02.079Z,11.18
2023-07-12T22:01:29.972Z,11.65
2023-07-12T22:03:58.039Z,11.38
2023-07-12T22:06:25.855Z,13.02
2023-07-12T22:08:53.635Z,12.60
2023-07-12T22:11:22.614Z,12.18
2023-07-12T22:13:51.000Z,12.48
2023-07-12T22:16:19.094Z,12.38
2023-07-12T22:18:49.184Z,11.95
2023-07-12T22:21:18.580Z,11.63
2023-07-12T22:23:46.444Z,12.13
2023-07-12T22:26:15.795Z,11.75
2023-07-12T22:28:44.326Z,11.93
2023-07-12T22:31:12.489Z,11.40
2023-07-12T22:33:40.322Z,11.10
2023-07-12T22:36:08.123Z,11.57
2023-07-12T22:38:36.325Z,10.77
2023-07-12T22:41:05.420Z,10.60
2023-07-12T22:43:33.652Z,10.85
2023-07-12T22:46:08.424Z,10.65
2023-07-12T22:48:36.380Z,10.52
2023-07-12T22:51:04.210Z,11.05
2023-07-12T22:53:31.971Z,10.80
2023-07-12T22:56:01.048Z,10.57
2023-07-12T22:58:28.913Z,10.40
2023-07-12T23:00:57.149Z,11.07
2023-07-12T23:03:25.056Z,11.18
2023-07-12T23:05:57.916Z,11.18
2023-07-12T23:08:29.294Z,10.32
2023-07-12T23:10:57.558Z,10.57
2023-07-12T23:13:27.382Z,10.20
2023-07-12T23:15:56.097Z,10.73
2023-07-12T23:18:25.760Z,11.15
2023-07-12T23:20:55.204Z,9.95
2023-07-12T23:23:23.977Z,9.90
2023-07-12T23:25:51.741Z,8.70
2023-07-12T23:28:19.284Z,9.40
2023-07-12T23:30:47.321Z,8.95
2023-07-12T23:33:15.187Z,9.07
2023-07-12T23:35:42.819Z,9.77
2023-07-12T23:38:11.127Z,9.35
2023-07-12T23:40:39.206Z,9.25
2023-07-12T23:43:07.257Z,9.05
2023-07-12T23:45:36.050Z,8.77
2023-07-12T23:48:03.967Z,8.93
2023-07-12T23:50:34.614Z,9.20
2023-07-12T23:53:02.694Z,8.88
2023-07-12T23:55:32.993Z,8.65
2023-07-12T23:58:01.078Z,8.68
